CYYZ/YYZ METAR and TAF weather

Enter ICAO airport designator
Station Type Date Time Source
CYYZ METAR 2017/03/23 18:00 UTC NOAA

CYYZ 231800Z 14005G15KT 090V230 15SM BKN260 01/M13 A3053 RMK CI6 SLP34


Station Type Date Time Source
CYYZ Decoded METAR 2017/03/23 18:00 UTC NOAA

Toronto Pearson Int'L. Ont., Canada (CYYZ) 43-40N 079-38W 173M
Mar 23, 2017 - 02:00 PM EDT / 2017.03.23 1800 UTC
Wind: from the SE (140 degrees) at 6 MPH (5 KT) gusting to 17 MPH (15 KT) (direction variable):0
Visibility: 15 mile(s):0
Sky conditions: mostly cloudy
Temperature: 33 F (1 C)
Windchill: 26 F (-3 C):1
Dew Point: 8 F (-13 C)
Relative Humidity: 34%
Pressure (altimeter): 30.53 in. Hg (1033 hPa)
ob: CYYZ 231800Z 14005G15KT 090V230 15SM BKN260 01/M13 A3053 RMK CI6 SLP349
cycle: 18

Station Type Date Time Source
CYYZ TAF 2017/03/23 18:44 UTC NOAA

TAF CYYZ 231741Z 2318/2424 15008KT P6SM BKN240
FM240000 11007KT P6SM OVC120
FM240700 15007KT WS015/19025KT P6SM -SHSNRA OVC060 PROB30 2407/2409 P6SM -FZRA
FM240900 19007KT WS015/21025KT 2SM -SNRA OVC015
TEMPO 2409/2411 P6SM -PL
FM241100 22010KT 1SM -RA BR OVC004
FM241500 23015KT 2SM -RA BR OVC008
FM241700 26015G25KT 6SM -DZ BR OVC012
BECMG 2421/2423 35008KT
RMK NXT FCST BY 232100Z


Example: see airport list